createdAt,value
2019-04-20T00:00:37.195Z,934.13
2019-04-20T00:01:33.968Z,934.14
2019-04-20T00:02:32.051Z,934.12
2019-04-20T00:03:38.044Z,934.17
2019-04-20T00:04:34.258Z,934.20
2019-04-20T00:05:33.019Z,934.24
2019-04-20T00:06:40.621Z,934.25
2019-04-20T00:07:34.715Z,934.29
2019-04-20T00:08:34.835Z,934.28
2019-04-20T00:09:36.525Z,934.27
2019-04-20T00:10:42.504Z,934.30
2019-04-20T00:11:45.915Z,934.28
2019-04-20T00:12:44.540Z,934.26
2019-04-20T00:13:43.774Z,934.27
2019-04-20T00:14:34.554Z,934.30
2019-04-20T00:15:32.326Z,934.31
2019-04-20T00:16:31.943Z,934.30
2019-04-20T00:17:32.733Z,934.32
2019-04-20T00:18:38.443Z,934.33
2019-04-20T00:19:39.125Z,934.35
2019-04-20T00:20:35.272Z,934.31
2019-04-20T00:21:33.912Z,934.30
2019-04-20T00:22:39.328Z,934.26
2019-04-20T00:23:36.770Z,934.25
2019-04-20T00:24:35.403Z,934.27
2019-04-20T00:25:41.717Z,934.21
2019-04-20T00:27:02.047Z,934.23
2019-04-20T00:27:55.711Z,934.24
2019-04-20T00:28:51.076Z,934.26
2019-04-20T00:29:51.749Z,934.23
2019-04-20T00:30:51.859Z,934.26
2019-04-20T00:31:45.855Z,934.27
2019-04-20T00:32:46.576Z,934.23
2019-04-20T00:33:44.870Z,934.25
2019-04-20T00:34:37.233Z,934.21
2019-04-20T00:35:31.797Z,934.28
2019-04-20T00:36:32.788Z,934.30
2019-04-20T00:37:31.945Z,934.34
2019-04-20T00:38:36.534Z,934.30
2019-04-20T00:39:32.009Z,934.31
2019-04-20T00:40:32.638Z,934.32
2019-04-20T00:41:35.091Z,934.30
2019-04-20T00:42:39.157Z,934.28
2019-04-20T00:43:35.656Z,934.29
2019-04-20T00:44:35.824Z,934.23
2019-04-20T00:45:33.768Z,934.26
2019-04-20T00:46:39.713Z,934.21
2019-04-20T00:47:43.268Z,934.23
2019-04-20T00:48:41.681Z,934.25
2019-04-20T00:49:44.490Z,934.29
2019-04-20T00:50:47.061Z,934.23
2019-04-20T00:51:49.139Z,934.27
2019-04-20T00:52:47.117Z,934.29
2019-04-20T00:53:39.262Z,934.27
2019-04-20T00:54:32.540Z,934.22
2019-04-20T00:55:31.788Z,934.23
2019-04-20T00:56:32.890Z,934.24
2019-04-20T00:57:43.048Z,934.22
2019-04-20T00:58:42.124Z,934.20
2019-04-20T00:59:51.757Z,934.20
2019-04-20T01:00:48.393Z,934.19
2019-04-20T01:01:55.868Z,934.17
2019-04-20T01:02:45.499Z,934.15
2019-04-20T01:03:48.645Z,934.13
2019-04-20T01:04:54.032Z,934.13
2019-04-20T01:05:53.529Z,934.08
2019-04-20T01:06:46.749Z,934.06
2019-04-20T01:07:38.583Z,934.04
2019-04-20T01:08:31.800Z,934.07
2019-04-20T01:09:31.491Z,934.06
2019-04-20T01:10:38.272Z,934.04
2019-04-20T01:11:36.753Z,934.03
2019-04-20T01:12:33.826Z,934.04
2019-04-20T01:13:31.774Z,934.02
2019-04-20T01:14:41.567Z,934.05
2019-04-20T01:15:38.786Z,934.08
2019-04-20T01:16:40.060Z,934.08
2019-04-20T01:17:31.443Z,934.08
2019-04-20T01:18:31.429Z,934.08
2019-04-20T01:19:31.413Z,934.12
2019-04-20T01:20:31.392Z,934.14
2019-04-20T01:21:33.437Z,934.16
2019-04-20T01:22:42.742Z,934.11
2019-04-20T01:23:38.272Z,934.15
2019-04-20T01:24:35.349Z,934.14
2019-04-20T01:25:36.002Z,934.09
2019-04-20T01:26:31.418Z,934.05
2019-04-20T01:27:42.197Z,934.08
2019-04-20T01:28:46.343Z,934.06
2019-04-20T01:29:39.293Z,934.09
2019-04-20T01:30:37.775Z,934.10
2019-04-20T01:31:38.551Z,934.15
2019-04-20T01:32:41.907Z,934.17
2019-04-20T01:33:43.809Z,934.18
2019-04-20T01:34:42.735Z,934.19
2019-04-20T01:35:48.131Z,934.17
2019-04-20T01:36:46.140Z,934.15
2019-04-20T01:37:52.222Z,934.14
2019-04-20T01:38:47.369Z,934.15
2019-04-20T01:39:37.106Z,934.12
2019-04-20T01:40:31.637Z,934.15
2019-04-20T01:41:31.226Z,934.13
2019-04-20T01:42:32.113Z,934.15
2019-04-20T01:43:31.256Z,934.16
2019-04-20T01:44:38.063Z,934.18
2019-04-20T01:45:35.710Z,934.16
2019-04-20T01:46:32.141Z,934.14
2019-04-20T01:47:38.906Z,934.12
2019-04-20T01:48:35.041Z,934.15
2019-04-20T01:49:33.944Z,934.14
2019-04-20T01:50:34.984Z,934.12
2019-04-20T01:51:42.926Z,934.12
2019-04-20T01:52:43.820Z,934.17
2019-04-20T01:53:44.232Z,934.12
2019-04-20T01:54:54.622Z,934.10
2019-04-20T01:55:45.713Z,934.08
2019-04-20T01:56:43.659Z,934.10
2019-04-20T01:57:53.415Z,934.10
2019-04-20T01:58:49.140Z,934.10
2019-04-20T01:59:40.258Z,934.09
2019-04-20T02:00:35.653Z,934.08
2019-04-20T02:01:35.450Z,934.04
2019-04-20T02:02:34.399Z,934.00
2019-04-20T02:03:36.967Z,933.98
2019-04-20T02:04:34.382Z,933.97
2019-04-20T02:05:35.158Z,933.95
2019-04-20T02:06:39.262Z,933.93
2019-04-20T02:07:37.311Z,933.90
2019-04-20T02:08:32.328Z,933.89
2019-04-20T02:09:32.597Z,933.85
2019-04-20T02:10:39.299Z,933.84
2019-04-20T02:11:36.179Z,933.85
2019-04-20T02:12:34.604Z,933.87
2019-04-20T02:13:38.578Z,933.83
2019-04-20T02:14:40.502Z,933.87
2019-04-20T02:15:38.665Z,933.93
2019-04-20T02:16:38.268Z,933.97
2019-04-20T02:17:40.227Z,933.98
2019-04-20T02:18:42.410Z,934.00
2019-04-20T02:19:52.433Z,934.02
2019-04-20T02:20:50.277Z,934.01
2019-04-20T02:21:50.235Z,933.96
2019-04-20T02:22:48.707Z,933.94
2019-04-20T02:23:38.735Z,933.96
2019-04-20T02:24:31.930Z,933.94
2019-04-20T02:25:31.163Z,933.99
2019-04-20T02:26:32.255Z,933.99
2019-04-20T02:27:38.557Z,933.97
2019-04-20T02:28:58.959Z,933.94
2019-04-20T02:29:51.638Z,933.96
2019-04-20T02:31:09.528Z,933.98
2019-04-20T02:32:11.986Z,933.95
2019-04-20T02:33:14.145Z,933.93
2019-04-20T02:35:18.623Z,933.96
2019-04-20T02:39:21.095Z,933.97
2019-04-20T02:40:00.364Z,933.95
2019-04-20T02:43:28.458Z,933.88
2019-04-20T02:45:15.174Z,933.93
2019-04-20T02:45:57.457Z,933.95
2019-04-20T02:47:08.132Z,933.94
2019-04-20T02:48:01.493Z,933.96
2019-04-20T02:49:10.090Z,933.96
2019-04-20T02:50:59.231Z,933.91
2019-04-20T02:52:04.327Z,933.89
2019-04-20T02:53:04.457Z,933.86
2019-04-20T02:54:12.916Z,933.89
2019-04-20T02:55:16.954Z,933.85
2019-04-20T02:56:05.786Z,933.88
2019-04-20T02:58:00.719Z,933.84
2019-04-20T02:59:25.069Z,933.85
2019-04-20T03:00:10.320Z,933.81
2019-04-20T03:00:57.132Z,933.82
2019-04-20T03:01:53.460Z,933.82
2019-04-20T03:02:42.941Z,933.80
2019-04-20T03:03:36.507Z,933.75
2019-04-20T03:04:40.240Z,933.76
2019-04-20T03:05:42.326Z,933.74
2019-04-20T03:06:46.704Z,933.74
2019-04-20T03:07:50.459Z,933.77
2019-04-20T03:08:53.265Z,933.74
2019-04-20T03:09:54.240Z,933.79
2019-04-20T03:10:54.518Z,933.77
2019-04-20T03:11:58.267Z,933.75
2019-04-20T03:12:52.239Z,933.74
2019-04-20T03:13:50.647Z,933.69
2019-04-20T03:14:42.389Z,933.68
2019-04-20T03:15:48.567Z,933.69
2019-04-20T03:16:48.576Z,933.59
2019-04-20T03:17:45.786Z,933.64
2019-04-20T03:18:45.553Z,933.63
2019-04-20T03:19:44.818Z,933.62
2019-04-20T03:20:52.831Z,933.60
2019-04-20T03:21:51.385Z,933.56
2019-04-20T03:23:11.641Z,933.53
2019-04-20T03:24:02.202Z,933.52
2019-04-20T03:24:53.991Z,933.47
2019-04-20T03:25:55.650Z,933.43
2019-04-20T03:26:47.507Z,933.42
2019-04-20T03:27:46.150Z,933.40
2019-04-20T03:28:42.987Z,933.43
2019-04-20T03:29:56.644Z,933.41
2019-04-20T03:31:25.086Z,933.39
2019-04-20T03:32:14.621Z,933.46
2019-04-20T03:34:15.283Z,933.41
2019-04-20T03:36:00.403Z,933.39
2019-04-20T03:36:53.519Z,933.39
2019-04-20T03:37:52.642Z,933.35
2019-04-20T03:38:48.283Z,933.37
2019-04-20T03:39:40.537Z,933.37
2019-04-20T03:40:46.725Z,933.35
2019-04-20T03:41:36.733Z,933.35
2019-04-20T03:42:30.863Z,933.36
2019-04-20T03:43:30.795Z,933.32
2019-04-20T03:44:32.910Z,933.31
2019-04-20T03:45:37.452Z,933.29
2019-04-20T03:46:38.275Z,933.32
2019-04-20T03:47:38.403Z,933.28
2019-04-20T03:48:48.298Z,933.24
2019-04-20T03:49:56.022Z,933.28
2019-04-20T03:50:54.096Z,933.25
2019-04-20T03:51:53.454Z,933.25
2019-04-20T03:52:51.415Z,933.30
2019-04-20T03:53:54.357Z,933.24
2019-04-20T03:54:41.604Z,933.21
2019-04-20T03:55:47.501Z,933.23
2019-04-20T03:56:49.562Z,933.22
2019-04-20T03:57:54.217Z,933.24
2019-04-20T03:58:48.271Z,933.26
2019-04-20T03:59:50.921Z,933.24
2019-04-20T04:00:48.469Z,933.29
2019-04-20T04:02:09.261Z,933.29
2019-04-20T04:03:01.566Z,933.27
2019-04-20T04:03:53.400Z,933.29
2019-04-20T04:04:49.472Z,933.32
2019-04-20T04:05:44.608Z,933.35
2019-04-20T04:06:41.677Z,933.34
2019-04-20T04:07:38.117Z,933.33
2019-04-20T04:08:36.364Z,933.33
2019-04-20T04:09:39.717Z,933.36
2019-04-20T04:10:47.891Z,933.37
2019-04-20T04:11:44.603Z,933.37
2019-04-20T04:12:36.391Z,933.38
2019-04-20T04:13:29.809Z,933.39
2019-04-20T04:14:30.463Z,933.35
2019-04-20T04:15:29.793Z,933.34
2019-04-20T04:16:37.258Z,933.27
2019-04-20T04:17:34.953Z,933.25
2019-04-20T04:18:35.332Z,933.27
2019-04-20T04:19:34.792Z,933.19
2019-04-20T04:20:38.778Z,933.20
2019-04-20T04:21:44.730Z,933.19
2019-04-20T04:22:46.247Z,933.15
2019-04-20T04:23:47.395Z,933.13
2019-04-20T04:24:40.315Z,933.09
2019-04-20T04:25:48.005Z,933.09
2019-04-20T04:26:45.330Z,933.11
2019-04-20T04:27:48.876Z,933.13
2019-04-20T04:28:43.312Z,933.11
2019-04-20T04:29:47.179Z,933.12
2019-04-20T04:30:40.303Z,933.16
2019-04-20T04:31:55.368Z,933.16
2019-04-20T04:33:08.809Z,933.16
2019-04-20T04:33:55.753Z,933.14
2019-04-20T04:34:48.939Z,933.13
2019-04-20T04:35:44.377Z,933.14
2019-04-20T04:36:52.316Z,933.12
2019-04-20T04:37:45.873Z,933.11
2019-04-20T04:38:56.087Z,933.11
2019-04-20T04:39:48.810Z,933.08
2019-04-20T04:40:58.361Z,933.10
2019-04-20T04:41:58.219Z,933.05
2019-04-20T04:42:56.428Z,933.07
2019-04-20T04:43:44.419Z,933.02
2019-04-20T04:44:40.132Z,933.04
2019-04-20T04:45:31.691Z,933.02
2019-04-20T04:46:32.980Z,932.99
2019-04-20T04:47:30.401Z,932.97
2019-04-20T04:48:34.995Z,932.93
2019-04-20T04:49:35.196Z,932.85
2019-04-20T04:50:31.451Z,932.87
2019-04-20T04:51:40.307Z,932.88
2019-04-20T04:52:41.880Z,932.86
2019-04-20T04:53:41.950Z,932.86
2019-04-20T04:54:40.041Z,932.90
2019-04-20T04:55:39.224Z,932.92
2019-04-20T04:56:30.827Z,932.87
2019-04-20T04:57:30.442Z,932.91
2019-04-20T04:58:29.799Z,932.91
2019-04-20T04:59:29.684Z,932.88
2019-04-20T05:00:32.589Z,932.89
2019-04-20T05:01:32.752Z,932.91
2019-04-20T05:02:36.226Z,932.85
2019-04-20T05:03:44.987Z,932.86
2019-04-20T05:04:55.135Z,932.87
2019-04-20T05:05:49.359Z,932.87
2019-04-20T05:06:43.413Z,932.82
2019-04-20T05:07:43.852Z,932.79
2019-04-20T05:08:37.757Z,932.82
2019-04-20T05:09:29.692Z,932.83
2019-04-20T05:10:29.261Z,932.82
2019-04-20T05:11:30.038Z,932.82
2019-04-20T05:12:33.074Z,932.82
2019-04-20T05:13:36.999Z,932.82
2019-04-20T05:14:43.211Z,932.82
2019-04-20T05:15:42.399Z,932.82
2019-04-20T05:16:45.133Z,932.83
2019-04-20T05:17:55.272Z,932.87
2019-04-20T05:18:50.239Z,932.83
2019-04-20T05:19:47.782Z,932.85
2019-04-20T05:20:54.755Z,932.86
2019-04-20T05:21:56.562Z,932.85
2019-04-20T05:22:45.758Z,932.88
2019-04-20T05:23:40.977Z,932.85
2019-04-20T05:24:53.630Z,932.86
2019-04-20T05:25:52.629Z,932.82
2019-04-20T05:26:50.072Z,932.84
2019-04-20T05:27:46.684Z,932.84
2019-04-20T05:28:40.740Z,932.84
2019-04-20T05:29:31.695Z,932.82
2019-04-20T05:30:29.068Z,932.86
2019-04-20T05:31:36.069Z,932.84
2019-04-20T05:32:41.356Z,932.82
2019-04-20T05:33:48.580Z,932.85
2019-04-20T05:34:52.823Z,932.83
2019-04-20T05:35:49.934Z,932.83
2019-04-20T05:36:49.345Z,932.86
2019-04-20T05:37:53.668Z,932.83
2019-04-20T05:39:10.528Z,932.88
2019-04-20T05:39:50.932Z,932.87
2019-04-20T05:40:50.499Z,932.84
2019-04-20T05:41:45.335Z,932.86
2019-04-20T05:42:49.906Z,932.85
2019-04-20T05:43:46.778Z,932.86
2019-04-20T05:44:52.795Z,932.83
2019-04-20T05:45:42.783Z,932.87
2019-04-20T05:46:48.179Z,932.82
2019-04-20T05:47:48.553Z,932.84
2019-04-20T05:48:50.726Z,932.83
2019-04-20T05:49:45.379Z,932.84
2019-04-20T05:50:49.408Z,932.76
2019-04-20T05:51:47.655Z,932.80
2019-04-20T05:52:59.769Z,932.78
2019-04-20T05:53:50.086Z,932.78
2019-04-20T05:54:51.422Z,932.77
2019-04-20T05:55:51.559Z,932.72
2019-04-20T05:56:50.083Z,932.73
2019-04-20T05:57:50.448Z,932.72
2019-04-20T05:58:50.768Z,932.72
2019-04-20T05:59:55.933Z,932.71
2019-04-20T06:00:55.052Z,932.68
2019-04-20T06:01:55.858Z,932.66
2019-04-20T06:02:49.473Z,932.66
2019-04-20T06:03:44.690Z,932.70
2019-04-20T06:05:00.370Z,932.66
2019-04-20T06:05:53.681Z,932.64
2019-04-20T06:06:49.792Z,932.64
2019-04-20T06:07:48.817Z,932.67
2019-04-20T06:08:53.945Z,932.67
2019-04-20T06:09:57.281Z,932.66
2019-04-20T06:10:49.409Z,932.66
2019-04-20T06:12:02.961Z,932.70
2019-04-20T06:12:49.893Z,932.71
2019-04-20T06:13:43.122Z,932.70
2019-04-20T06:14:43.151Z,932.64
2019-04-20T06:15:51.728Z,932.61
2019-04-20T06:16:50.013Z,932.61
2019-04-20T06:17:49.279Z,932.59
2019-04-20T06:18:40.090Z,932.57
2019-04-20T06:19:45.452Z,932.57
2019-04-20T06:20:50.201Z,932.59
2019-04-20T06:21:52.882Z,932.61
2019-04-20T06:22:51.370Z,932.59
2019-04-20T06:23:53.146Z,932.61
2019-04-20T06:24:57.250Z,932.64
2019-04-20T06:26:53.848Z,932.61
2019-04-20T06:27:55.336Z,932.56
2019-04-20T06:28:45.080Z,932.63
2019-04-20T06:29:45.764Z,932.62
2019-04-20T06:30:41.435Z,932.60
2019-04-20T06:31:48.633Z,932.59
2019-04-20T06:32:44.731Z,932.61
2019-04-20T06:34:08.856Z,932.62
2019-04-20T06:34:45.040Z,932.60
2019-04-20T06:36:18.240Z,932.59
2019-04-20T06:37:54.919Z,932.62
2019-04-20T06:38:57.440Z,932.58
2019-04-20T06:41:00.620Z,932.58
2019-04-20T06:42:48.344Z,932.55
2019-04-20T06:43:54.262Z,932.51
2019-04-20T06:45:04.739Z,932.56
2019-04-20T06:46:01.997Z,932.53
2019-04-20T06:46:59.105Z,932.53
2019-04-20T06:47:52.100Z,932.51
2019-04-20T06:48:52.295Z,932.50
2019-04-20T06:50:07.453Z,932.51
2019-04-20T06:50:44.754Z,932.52
2019-04-20T06:51:47.360Z,932.50
2019-04-20T06:52:45.368Z,932.51
2019-04-20T06:53:46.935Z,932.48
2019-04-20T06:54:48.630Z,932.51
2019-04-20T06:55:51.697Z,932.50
2019-04-20T06:56:52.502Z,932.47
2019-04-20T06:58:02.805Z,932.47
2019-04-20T06:58:49.773Z,932.48
2019-04-20T06:59:45.875Z,932.44
2019-04-20T07:00:53.331Z,932.45
2019-04-20T07:01:56.407Z,932.44
2019-04-20T07:03:01.897Z,932.40
2019-04-20T07:05:10.055Z,932.40
2019-04-20T07:06:01.882Z,932.41
2019-04-20T07:06:59.172Z,932.45
2019-04-20T07:07:54.587Z,932.41
2019-04-20T07:08:56.483Z,932.41
2019-04-20T07:10:53.170Z,932.42
2019-04-20T07:11:46.687Z,932.40
2019-04-20T07:12:45.070Z,932.40
2019-04-20T07:13:39.207Z,932.36
2019-04-20T07:14:41.413Z,932.35
2019-04-20T07:15:40.240Z,932.38
2019-04-20T07:16:45.122Z,932.40
2019-04-20T07:17:55.030Z,932.43
2019-04-20T07:18:49.708Z,932.44
2019-04-20T07:19:44.405Z,932.43
2019-04-20T07:20:55.427Z,932.48
2019-04-20T07:22:02.319Z,932.55
2019-04-20T07:23:08.216Z,932.55
2019-04-20T07:23:56.089Z,932.56
2019-04-20T07:24:48.875Z,932.56
2019-04-20T07:25:47.378Z,932.56
2019-04-20T07:26:54.186Z,932.55
2019-04-20T07:27:49.341Z,932.57
2019-04-20T07:28:55.247Z,932.58
2019-04-20T07:29:53.391Z,932.59
2019-04-20T07:30:52.155Z,932.61
2019-04-20T07:31:44.200Z,932.61
2019-04-20T07:32:52.458Z,932.62
2019-04-20T07:33:46.455Z,932.61
2019-04-20T07:34:51.557Z,932.60
2019-04-20T07:35:46.457Z,932.62
2019-04-20T07:37:04.052Z,932.58
2019-04-20T07:38:10.394Z,932.60
2019-04-20T07:39:03.972Z,932.59
2019-04-20T07:39:48.214Z,932.60
2019-04-20T07:40:44.439Z,932.62
2019-04-20T07:41:54.648Z,932.63
2019-04-20T07:42:53.833Z,932.63
2019-04-20T07:44:01.683Z,932.62
2019-04-20T07:44:56.699Z,932.67
2019-04-20T07:45:46.696Z,932.64
2019-04-20T07:47:08.460Z,932.68
2019-04-20T07:48:07.441Z,932.71
2019-04-20T07:48:49.397Z,932.67
2019-04-20T07:49:45.686Z,932.68
2019-04-20T07:50:40.706Z,932.66
2019-04-20T07:51:33.956Z,932.66
2019-04-20T07:52:39.618Z,932.63
2019-04-20T07:53:40.336Z,932.61
2019-04-20T07:55:08.176Z,932.60
2019-04-20T07:55:50.779Z,932.61
2019-04-20T07:56:47.670Z,932.62
2019-04-20T07:57:42.945Z,932.63
2019-04-20T07:58:38.067Z,932.64
2019-04-20T07:59:46.835Z,932.65
2019-04-20T08:00:55.148Z,932.68
2019-04-20T08:01:52.651Z,932.71
2019-04-20T08:02:50.254Z,932.67
2019-04-20T08:03:50.404Z,932.70
2019-04-20T08:04:43.485Z,932.73
2019-04-20T08:05:39.232Z,932.80
2019-04-20T08:06:36.785Z,932.78
2019-04-20T08:07:39.305Z,932.81
2019-04-20T08:08:45.173Z,932.83
2019-04-20T08:09:38.056Z,932.85
2019-04-20T08:10:40.682Z,932.87
2019-04-20T08:11:50.835Z,932.91
2019-04-20T08:12:54.119Z,932.94
2019-04-20T08:13:51.332Z,932.98
2019-04-20T08:15:01.485Z,933.02
2019-04-20T08:15:49.174Z,933.03
2019-04-20T08:16:58.708Z,933.08
2019-04-20T08:17:50.980Z,933.08
2019-04-20T08:18:49.915Z,933.10
2019-04-20T08:19:47.291Z,933.16
2019-04-20T08:20:51.030Z,933.16
2019-04-20T08:21:48.595Z,933.13
2019-04-20T08:23:48.872Z,933.12
2019-04-20T08:24:42.866Z,933.11
2019-04-20T08:25:39.638Z,933.08
2019-04-20T08:26:32.485Z,933.09
2019-04-20T08:27:27.652Z,933.06
2019-04-20T08:28:35.866Z,933.02
2019-04-20T08:29:42.734Z,933.05
2019-04-20T08:30:41.390Z,933.03
2019-04-20T08:31:40.656Z,933.03
2019-04-20T08:32:43.519Z,933.05
2019-04-20T08:33:55.102Z,933.09
2019-04-20T08:34:49.056Z,933.13
2019-04-20T08:35:53.976Z,933.12
2019-04-20T08:36:52.516Z,933.15
2019-04-20T08:38:03.582Z,933.14
2019-04-20T08:40:50.319Z,933.08
2019-04-20T08:41:54.775Z,933.10
2019-04-20T08:42:57.385Z,933.09
2019-04-20T08:45:01.140Z,933.08
2019-04-20T08:45:53.462Z,933.13
2019-04-20T08:47:01.843Z,933.09
2019-04-20T08:47:53.323Z,933.11
2019-04-20T08:48:46.943Z,933.13
2019-04-20T08:49:51.929Z,933.14
2019-04-20T08:50:45.313Z,933.15
2019-04-20T08:51:56.849Z,933.16
2019-04-20T08:53:46.575Z,933.18
2019-04-20T08:54:43.108Z,933.18
2019-04-20T08:55:42.124Z,933.20
2019-04-20T08:56:36.139Z,933.24
2019-04-20T08:57:27.118Z,933.20
2019-04-20T08:58:27.275Z,933.21
2019-04-20T08:59:26.924Z,933.19
2019-04-20T09:00:33.098Z,933.22
2019-04-20T09:01:30.894Z,933.21
2019-04-20T09:02:27.958Z,933.19
2019-04-20T09:03:32.648Z,933.17
2019-04-20T09:04:37.292Z,933.21
2019-04-20T09:05:41.560Z,933.23
2019-04-20T09:06:41.765Z,933.24
2019-04-20T09:07:30.019Z,933.28
2019-04-20T09:08:36.684Z,933.33
2019-04-20T09:09:49.414Z,933.34
2019-04-20T09:10:45.487Z,933.39
2019-04-20T09:11:50.523Z,933.40
2019-04-20T09:12:39.495Z,933.44
2019-04-20T09:13:34.279Z,933.46
2019-04-20T09:14:28.222Z,933.48
2019-04-20T09:15:27.827Z,933.53
2019-04-20T09:16:37.083Z,933.55
2019-04-20T09:17:35.590Z,933.58
2019-04-20T09:18:34.388Z,933.61
2019-04-20T09:19:36.533Z,933.61
2019-04-20T09:20:37.030Z,933.63
2019-04-20T09:21:37.943Z,933.61
2019-04-20T09:22:34.159Z,933.59
2019-04-20T09:23:42.446Z,933.57
2019-04-20T09:24:52.726Z,933.58
2019-04-20T09:25:57.917Z,933.60
2019-04-20T09:26:43.186Z,933.62
2019-04-20T09:27:36.228Z,933.64
2019-04-20T09:28:35.405Z,933.65
2019-04-20T09:29:37.219Z,933.68
2019-04-20T09:30:37.477Z,933.67
2019-04-20T09:31:39.237Z,933.69
2019-04-20T09:32:39.653Z,933.66
2019-04-20T09:33:40.143Z,933.65
2019-04-20T09:34:46.695Z,933.68
2019-04-20T09:35:44.384Z,933.70
2019-04-20T09:36:40.344Z,933.68
2019-04-20T09:37:43.550Z,933.72
2019-04-20T09:38:41.402Z,933.72
2019-04-20T09:39:33.962Z,933.72
2019-04-20T09:40:51.009Z,933.71
2019-04-20T09:41:47.157Z,933.69
2019-04-20T09:42:26.502Z,933.71
2019-04-20T09:43:26.473Z,933.68
2019-04-20T09:44:33.669Z,933.71
2019-04-20T09:45:33.945Z,933.71
2019-04-20T09:46:26.471Z,933.74
2019-04-20T09:47:33.903Z,933.75
2019-04-20T09:48:36.861Z,933.70
2019-04-20T09:49:40.979Z,933.68
2019-04-20T09:50:43.791Z,933.72
2019-04-20T09:51:46.708Z,933.76
2019-04-20T09:52:39.933Z,933.75
2019-04-20T09:53:39.274Z,933.80
2019-04-20T09:54:48.115Z,933.78
2019-04-20T09:55:36.323Z,933.84
2019-04-20T09:56:39.798Z,933.81
2019-04-20T09:57:43.794Z,933.82
2019-04-20T09:58:45.183Z,933.79
2019-04-20T09:59:45.037Z,933.75
2019-04-20T10:00:44.026Z,933.76
2019-04-20T10:01:37.682Z,933.78
2019-04-20T10:02:29.889Z,933.78
2019-04-20T10:03:26.842Z,933.82
2019-04-20T10:04:26.249Z,933.83
2019-04-20T10:05:27.386Z,933.83
2019-04-20T10:06:30.131Z,933.83
2019-04-20T10:07:30.775Z,933.83
2019-04-20T10:08:26.240Z,933.82
2019-04-20T10:09:31.300Z,933.87
2019-04-20T10:10:32.318Z,933.83
2019-04-20T10:11:26.151Z,933.83
2019-04-20T10:12:26.143Z,933.88
2019-04-20T10:13:27.145Z,933.90
2019-04-20T10:14:26.912Z,933.94
2019-04-20T10:15:27.910Z,933.98
2019-04-20T10:16:26.121Z,934.01
2019-04-20T10:17:28.546Z,934.03
2019-04-20T10:18:26.072Z,934.07
2019-04-20T10:19:30.932Z,934.09
2019-04-20T10:20:30.923Z,934.11
2019-04-20T10:21:26.062Z,934.13
2019-04-20T10:22:26.745Z,934.15
2019-04-20T10:23:26.876Z,934.16
2019-04-20T10:24:26.453Z,934.19
2019-04-20T10:25:26.671Z,934.23
2019-04-20T10:26:26.986Z,934.22
2019-04-20T10:27:26.455Z,934.24
2019-04-20T10:28:25.986Z,934.25
2019-04-20T10:29:25.982Z,934.27
2019-04-20T10:30:26.309Z,934.23
2019-04-20T10:31:26.487Z,934.26
2019-04-20T10:32:36.399Z,934.26
2019-04-20T10:33:25.925Z,934.31
2019-04-20T10:34:26.403Z,934.33
2019-04-20T10:35:25.893Z,934.37
2019-04-20T10:36:25.894Z,934.31
2019-04-20T10:37:27.148Z,934.33
2019-04-20T10:38:25.881Z,934.37
2019-04-20T10:39:26.644Z,934.35
2019-04-20T10:40:38.089Z,934.32
2019-04-20T10:41:36.034Z,934.35
2019-04-20T10:42:26.089Z,934.35
2019-04-20T10:43:26.054Z,934.42
2019-04-20T10:44:27.099Z,934.39
2019-04-20T10:45:26.790Z,934.42
2019-04-20T10:46:26.830Z,934.48
2019-04-20T10:47:27.192Z,934.50
2019-04-20T10:48:26.946Z,934.56
2019-04-20T10:49:27.042Z,934.54
2019-04-20T10:50:27.077Z,934.54
2019-04-20T10:51:25.922Z,934.61
2019-04-20T10:52:25.794Z,934.60
2019-04-20T10:53:25.966Z,934.62
2019-04-20T10:54:26.682Z,934.64
2019-04-20T10:55:27.148Z,934.68
2019-04-20T10:56:25.727Z,934.68
2019-04-20T10:57:25.812Z,934.71
2019-04-20T10:58:25.682Z,934.70
2019-04-20T10:59:25.797Z,934.75
2019-04-20T11:00:25.745Z,934.75
2019-04-20T11:01:25.644Z,934.72
2019-04-20T11:02:25.873Z,934.72
2019-04-20T11:03:26.736Z,934.70
2019-04-20T11:04:26.310Z,934.73
2019-04-20T11:05:26.526Z,934.75
2019-04-20T11:06:26.784Z,934.78
2019-04-20T11:07:26.475Z,934.80
2019-04-20T11:08:26.538Z,934.86
2019-04-20T11:09:26.799Z,934.88
2019-04-20T11:10:28.948Z,934.89
2019-04-20T11:11:28.666Z,934.93
2019-04-20T11:12:26.265Z,934.98
2019-04-20T11:13:25.651Z,934.97
2019-04-20T11:14:31.182Z,934.99
2019-04-20T11:15:26.244Z,935.09
2019-04-20T11:16:26.398Z,935.08
2019-04-20T11:17:28.508Z,935.08
2019-04-20T11:18:25.460Z,935.13
2019-04-20T11:19:25.475Z,935.15
2019-04-20T11:20:25.603Z,935.16
2019-04-20T11:21:26.247Z,935.20
2019-04-20T11:22:26.266Z,935.22
2019-04-20T11:23:26.513Z,935.17
2019-04-20T11:24:26.046Z,935.14
2019-04-20T11:25:26.200Z,935.11
2019-04-20T11:26:26.415Z,935.11
2019-04-20T11:27:25.839Z,935.08
2019-04-20T11:28:26.193Z,935.10
2019-04-20T11:29:26.398Z,935.05
2019-04-20T11:30:25.909Z,935.08
2019-04-20T11:31:26.845Z,935.06
2019-04-20T11:32:26.239Z,935.07
2019-04-20T11:33:25.326Z,935.08
2019-04-20T11:34:28.519Z,935.09
2019-04-20T11:35:32.176Z,935.11
2019-04-20T11:36:25.334Z,935.13
2019-04-20T11:37:25.302Z,935.13
2019-04-20T11:38:26.137Z,935.12
2019-04-20T11:39:25.270Z,935.11
2019-04-20T11:40:26.426Z,935.12
2019-04-20T11:41:27.472Z,935.13
2019-04-20T11:42:25.709Z,935.12
2019-04-20T11:43:26.075Z,935.12
2019-04-20T11:44:27.831Z,935.15
2019-04-20T11:45:25.219Z,935.14
2019-04-20T11:46:25.183Z,935.12
2019-04-20T11:47:25.202Z,935.14
2019-04-20T11:48:25.442Z,935.09
2019-04-20T11:49:25.724Z,935.05
2019-04-20T11:50:25.325Z,935.02
2019-04-20T11:51:25.526Z,934.98
2019-04-20T11:52:26.504Z,935.02
2019-04-20T11:53:26.653Z,935.05
2019-04-20T11:54:26.363Z,935.06
2019-04-20T11:55:26.531Z,935.03
2019-04-20T11:56:29.263Z,935.07
2019-04-20T11:57:25.143Z,935.11
2019-04-20T11:58:26.103Z,935.10
2019-04-20T11:59:25.356Z,935.09
2019-04-20T12:00:25.300Z,935.11
2019-04-20T12:01:29.047Z,935.11
2019-04-20T12:02:30.142Z,935.12
2019-04-20T12:03:35.357Z,935.09
2019-04-20T12:04:33.769Z,935.10
2019-04-20T12:05:35.661Z,935.14
2019-04-20T12:06:26.473Z,935.13
2019-04-20T12:07:25.043Z,935.13
2019-04-20T12:08:25.150Z,935.17
2019-04-20T12:09:26.181Z,935.16
2019-04-20T12:10:26.412Z,935.15
2019-04-20T12:11:36.435Z,935.11
2019-04-20T12:12:34.933Z,935.17
2019-04-20T12:13:24.997Z,935.17
2019-04-20T12:14:24.985Z,935.09
2019-04-20T12:15:25.012Z,935.12
2019-04-20T12:16:25.706Z,935.08
2019-04-20T12:17:25.953Z,935.03
2019-04-20T12:18:25.389Z,935.02
2019-04-20T12:19:24.957Z,935.00
2019-04-20T12:20:25.073Z,935.05
2019-04-20T12:21:24.922Z,935.01
2019-04-20T12:22:26.137Z,935.01
2019-04-20T12:23:26.409Z,935.01
2019-04-20T12:24:24.910Z,935.02
2019-04-20T12:25:25.908Z,935.03
2019-04-20T12:26:24.970Z,935.02
2019-04-20T12:27:25.022Z,935.03
2019-04-20T12:28:25.372Z,935.02
2019-04-20T12:29:25.813Z,934.99
2019-04-20T12:30:25.853Z,935.00
2019-04-20T12:31:27.584Z,935.01
2019-04-20T12:32:29.528Z,934.96
2019-04-20T12:33:26.285Z,934.93
2019-04-20T12:34:24.874Z,934.95
2019-04-20T12:35:24.862Z,934.95
2019-04-20T12:36:25.971Z,934.96
2019-04-20T12:37:25.044Z,934.92
2019-04-20T12:38:25.256Z,934.94
2019-04-20T12:39:24.957Z,934.92
2019-04-20T12:40:25.827Z,934.93
2019-04-20T12:41:34.414Z,934.96
2019-04-20T12:42:25.365Z,934.99
2019-04-20T12:43:25.531Z,934.98
2019-04-20T12:44:25.734Z,934.97
2019-04-20T12:45:25.841Z,934.96
2019-04-20T12:46:25.196Z,934.96
2019-04-20T12:47:25.744Z,934.95
2019-04-20T12:48:25.896Z,934.93
2019-04-20T12:49:25.419Z,934.93
2019-04-20T12:50:25.677Z,934.95